createdAt,value
2018-07-25T00:01:46.881Z,58.70
2018-07-25T00:04:15.111Z,59.30
2018-07-25T00:06:43.336Z,59.60
2018-07-25T00:09:11.893Z,59.70
2018-07-25T00:11:40.173Z,59.90
2018-07-25T00:14:08.407Z,60.00
2018-07-25T00:19:05.087Z,59.70
2018-07-25T00:21:33.430Z,59.20
2018-07-25T00:24:01.636Z,59.70
2018-07-25T00:26:29.890Z,59.80
2018-07-25T00:28:58.135Z,59.90
2018-07-25T00:31:26.387Z,59.80
2018-07-25T00:33:54.596Z,60.50
2018-07-25T00:36:22.992Z,60.90
2018-07-25T00:38:51.178Z,61.90
2018-07-25T00:41:19.421Z,60.80
2018-07-25T00:43:47.675Z,61.30
2018-07-25T00:46:15.915Z,62.20
2018-07-25T00:48:44.219Z,62.00
2018-07-25T00:51:13.005Z,63.10
2018-07-25T00:53:41.277Z,62.50
2018-07-25T00:56:09.559Z,63.30
2018-07-25T00:58:37.820Z,63.10
2018-07-25T01:01:06.042Z,62.10
2018-07-25T01:03:34.289Z,63.00
2018-07-25T01:06:02.859Z,64.00
2018-07-25T01:08:31.106Z,64.50
2018-07-25T01:10:59.318Z,64.10
2018-07-25T01:13:27.576Z,64.60
2018-07-25T01:15:55.871Z,63.90
2018-07-25T01:18:24.206Z,63.40
2018-07-25T01:20:52.458Z,63.40
2018-07-25T01:23:20.906Z,64.00
2018-07-25T01:25:49.143Z,63.70
2018-07-25T01:28:17.381Z,64.50
2018-07-25T01:30:45.612Z,64.10
2018-07-25T01:33:13.855Z,64.90
2018-07-25T01:35:42.114Z,64.70
2018-07-25T01:38:11.082Z,64.50
2018-07-25T01:40:39.310Z,64.60
2018-07-25T01:43:07.549Z,64.90
2018-07-25T01:45:35.785Z,65.00
2018-07-25T01:48:04.057Z,65.10
2018-07-25T01:50:32.308Z,65.20
2018-07-25T01:53:00.554Z,64.90
2018-07-25T01:55:28.834Z,66.00
2018-07-25T01:57:57.077Z,64.70
2018-07-25T02:00:25.337Z,64.10
2018-07-25T02:02:53.613Z,64.70
2018-07-25T02:05:22.126Z,65.10
2018-07-25T02:07:50.480Z,65.00
2018-07-25T02:10:18.714Z,65.70
2018-07-25T02:12:46.973Z,65.50
2018-07-25T02:15:15.273Z,65.50
2018-07-25T02:17:43.501Z,65.60
2018-07-25T02:20:11.782Z,64.90
2018-07-25T02:22:39.992Z,64.70
2018-07-25T02:25:08.220Z,64.50
2018-07-25T02:27:36.470Z,64.60
2018-07-25T02:30:05.234Z,65.30
2018-07-25T02:32:33.473Z,65.60
2018-07-25T02:35:01.737Z,66.20
2018-07-25T02:37:29.973Z,66.60
2018-07-25T02:39:58.222Z,66.10
2018-07-25T02:42:26.562Z,66.50
2018-07-25T02:44:54.728Z,66.30
2018-07-25T02:47:22.994Z,66.00
2018-07-25T02:49:51.244Z,66.50
2018-07-25T02:52:19.688Z,66.70
2018-07-25T02:54:47.961Z,66.60
2018-07-25T02:57:16.231Z,66.60
2018-07-25T02:59:44.481Z,66.80
2018-07-25T03:02:13.335Z,66.70
2018-07-25T03:04:41.605Z,66.20
2018-07-25T03:07:09.854Z,66.10
2018-07-25T03:09:38.096Z,66.10
2018-07-25T03:12:06.371Z,66.10
2018-07-25T03:14:34.609Z,66.30
2018-07-25T03:17:02.855Z,66.30
2018-07-25T03:19:31.278Z,66.50
2018-07-25T03:21:59.508Z,66.60
2018-07-25T03:24:27.782Z,67.10
2018-07-25T03:26:56.021Z,66.90
2018-07-25T03:29:24.265Z,65.90
2018-07-25T03:31:52.510Z,66.00
2018-07-25T03:36:48.772Z,67.40
2018-07-25T03:39:17.378Z,67.60
2018-07-25T03:41:45.620Z,67.30
2018-07-25T03:46:42.244Z,66.80
2018-07-25T03:49:10.473Z,66.40
2018-07-25T03:51:38.714Z,66.00
2018-07-25T03:54:06.986Z,66.00
2018-07-25T03:56:35.416Z,66.30
2018-07-25T03:59:03.650Z,66.10
2018-07-25T04:01:31.895Z,65.70
2018-07-25T04:04:00.140Z,65.40
2018-07-25T04:06:28.372Z,64.80
2018-07-25T04:08:56.604Z,64.90
2018-07-25T04:11:24.862Z,65.00
2018-07-25T04:13:53.089Z,64.70
2018-07-25T04:16:21.308Z,64.40
2018-07-25T04:18:49.898Z,64.10
2018-07-25T04:21:18.139Z,63.80
2018-07-25T04:23:46.378Z,63.80
2018-07-25T04:26:14.754Z,63.70
2018-07-25T04:28:42.981Z,63.50
2018-07-25T04:31:11.589Z,63.20
2018-07-25T04:33:39.825Z,63.10
2018-07-25T04:36:08.051Z,62.80
2018-07-25T04:38:36.278Z,62.20
2018-07-25T04:41:04.793Z,62.20
2018-07-25T04:43:33.072Z,61.90
2018-07-25T04:46:01.343Z,61.90
2018-07-25T04:48:29.619Z,62.00
2018-07-25T04:50:57.898Z,62.30
2018-07-25T04:53:26.121Z,62.40
2018-07-25T04:55:54.385Z,62.40
2018-07-25T04:58:22.634Z,62.90
2018-07-25T05:00:50.873Z,63.10
2018-07-25T05:03:19.274Z,62.50
2018-07-25T05:05:47.636Z,62.80
2018-07-25T05:08:15.885Z,63.10
2018-07-25T05:10:44.174Z,63.10
2018-07-25T05:15:41.277Z,62.90
2018-07-25T05:18:09.525Z,62.70
2018-07-25T05:20:37.822Z,61.80
2018-07-25T05:23:06.102Z,62.30
2018-07-25T05:25:34.576Z,61.70
2018-07-25T05:28:02.853Z,61.60
2018-07-25T05:30:31.112Z,61.40
2018-07-25T05:32:59.777Z,61.30
2018-07-25T05:35:28.017Z,61.20
2018-07-25T05:37:56.367Z,61.20
2018-07-25T05:40:24.664Z,61.20
2018-07-25T05:42:53.354Z,61.10
2018-07-25T05:45:21.616Z,61.20
2018-07-25T05:47:49.948Z,60.90
2018-07-25T05:50:18.185Z,61.60
2018-07-25T05:52:46.429Z,61.00
2018-07-25T05:55:14.702Z,61.00
2018-07-25T05:57:42.920Z,61.00
2018-07-25T06:00:11.207Z,61.00
2018-07-25T06:02:39.446Z,61.10
2018-07-25T06:05:07.676Z,61.10
2018-07-25T06:10:03.960Z,61.10
2018-07-25T06:12:32.252Z,62.40
2018-07-25T06:15:00.484Z,61.70
2018-07-25T06:17:28.705Z,62.20
2018-07-25T06:19:56.922Z,62.80
2018-07-25T06:24:53.523Z,62.70
2018-07-25T06:27:21.747Z,63.10
2018-07-25T06:32:18.068Z,62.80
2018-07-25T06:34:46.326Z,62.90
2018-07-25T06:37:14.586Z,63.30
2018-07-25T06:39:42.839Z,63.40
2018-07-25T06:42:11.113Z,63.50
2018-07-25T06:44:39.405Z,64.60
2018-07-25T06:47:07.714Z,64.90
2018-07-25T06:49:35.967Z,65.50
2018-07-25T06:52:04.258Z,65.00
2018-07-25T06:54:32.608Z,64.70
2018-07-25T06:57:00.860Z,65.20
2018-07-25T06:59:29.121Z,64.30
2018-07-25T07:01:57.705Z,65.00
2018-07-25T07:04:25.985Z,65.50
2018-07-25T07:06:54.352Z,65.10
2018-07-25T07:09:22.572Z,65.40
2018-07-25T07:11:50.818Z,65.40
2018-07-25T07:14:19.074Z,64.80
2018-07-25T07:16:47.376Z,65.10
2018-07-25T07:19:15.601Z,65.40
2018-07-25T07:21:43.851Z,65.80
2018-07-25T07:24:12.860Z,66.10
2018-07-25T07:26:47.815Z,65.70
2018-07-25T07:29:16.117Z,65.90
2018-07-25T07:31:44.375Z,66.40
2018-07-25T07:34:13.271Z,66.00
2018-07-25T07:36:41.540Z,66.20
2018-07-25T07:39:12.228Z,66.40
2018-07-25T07:41:40.574Z,66.20
2018-07-25T07:44:08.852Z,66.30
2018-07-25T07:46:37.509Z,66.00
2018-07-25T07:49:05.952Z,66.40
2018-07-25T07:51:34.254Z,67.40
2018-07-25T07:54:02.544Z,69.00
2018-07-25T07:56:30.791Z,69.10
2018-07-25T07:58:59.158Z,70.00
2018-07-25T08:01:27.396Z,71.50
2018-07-25T08:03:55.647Z,72.60
2018-07-25T08:06:24.253Z,71.40
2018-07-25T08:11:21.347Z,71.50
2018-07-25T08:13:50.413Z,71.70
2018-07-25T08:16:19.190Z,71.80
2018-07-25T08:18:47.510Z,71.50
2018-07-25T08:21:15.849Z,71.20
2018-07-25T08:23:44.465Z,71.70
2018-07-25T08:26:13.430Z,70.90
2018-07-25T08:28:41.670Z,70.70
2018-07-25T08:31:09.956Z,70.40
2018-07-25T08:33:38.211Z,69.90
2018-07-25T08:36:06.615Z,70.30
2018-07-25T08:38:39.262Z,71.20
2018-07-25T08:41:07.732Z,70.00
2018-07-25T08:43:37.240Z,69.40
2018-07-25T08:46:06.954Z,69.50
2018-07-25T08:48:35.232Z,69.60
2018-07-25T08:51:03.694Z,70.30
2018-07-25T08:53:32.720Z,71.20
2018-07-25T08:56:01.078Z,71.00
2018-07-25T08:58:29.762Z,70.50
2018-07-25T09:00:58.457Z,70.00
2018-07-25T09:03:26.722Z,70.00
2018-07-25T09:05:55.005Z,69.60
2018-07-25T09:08:23.283Z,69.00
2018-07-25T09:10:51.583Z,68.50
2018-07-25T09:13:19.975Z,68.20
2018-07-25T09:15:48.252Z,68.40
2018-07-25T09:18:16.521Z,67.60
2018-07-25T09:20:44.855Z,67.00
2018-07-25T09:25:41.271Z,66.90
2018-07-25T09:28:09.468Z,67.40
2018-07-25T09:30:37.770Z,68.30
2018-07-25T09:33:06.103Z,68.20
2018-07-25T09:35:34.379Z,67.90
2018-07-25T09:38:02.662Z,67.80
2018-07-25T09:40:31.014Z,68.10
2018-07-25T09:42:59.301Z,67.70
2018-07-25T09:45:27.738Z,67.90
2018-07-25T09:47:55.896Z,66.40
2018-07-25T09:50:24.173Z,67.80
2018-07-25T09:52:52.592Z,68.50
2018-07-25T09:55:20.870Z,68.20
2018-07-25T09:57:49.156Z,68.10
2018-07-25T10:00:50.024Z,66.60
2018-07-25T10:03:18.943Z,66.70
2018-07-25T10:05:47.310Z,66.10
2018-07-25T10:08:16.560Z,66.10
2018-07-25T10:10:45.222Z,65.50
2018-07-25T10:13:13.605Z,65.20
2018-07-25T10:15:41.897Z,65.30
2018-07-25T10:18:10.188Z,65.50
2018-07-25T10:20:38.533Z,65.90
2018-07-25T10:23:06.931Z,64.50
2018-07-25T10:28:03.242Z,63.20
2018-07-25T10:30:31.546Z,62.90
2018-07-25T10:32:59.853Z,61.50
2018-07-25T10:35:28.113Z,62.40
2018-07-25T10:37:56.409Z,61.50
2018-07-25T10:40:24.701Z,60.70
2018-07-25T10:42:53.043Z,58.30
2018-07-25T10:45:21.336Z,59.10
2018-07-25T10:47:49.613Z,59.60
2018-07-25T10:50:17.917Z,58.50
2018-07-25T10:52:46.224Z,57.40
2018-07-25T10:55:14.587Z,57.30
2018-07-25T10:57:42.915Z,56.70
2018-07-25T11:00:11.235Z,56.90
2018-07-25T11:02:39.574Z,56.30
2018-07-25T11:05:08.054Z,55.90
2018-07-25T11:07:36.335Z,53.80
2018-07-25T11:10:05.547Z,54.50
2018-07-25T11:12:33.845Z,53.60
2018-07-25T11:15:02.460Z,52.40
2018-07-25T11:17:30.819Z,53.40
2018-07-25T11:19:59.091Z,53.90
2018-07-25T11:22:27.367Z,53.80
2018-07-25T11:24:55.686Z,53.30
2018-07-25T11:29:51.990Z,52.50
2018-07-25T11:32:20.244Z,50.60
2018-07-25T11:34:48.533Z,51.60
2018-07-25T11:37:16.830Z,52.40
2018-07-25T11:39:45.623Z,51.00
2018-07-25T11:42:13.987Z,51.20
2018-07-25T11:44:42.279Z,49.20
2018-07-25T11:47:12.138Z,50.80
2018-07-25T11:49:40.517Z,51.30
2018-07-25T11:52:08.835Z,48.20
2018-07-25T11:54:37.114Z,48.20
2018-07-25T11:57:05.476Z,48.90
2018-07-25T11:59:33.975Z,48.00
2018-07-25T12:02:02.256Z,47.40
2018-07-25T12:04:30.548Z,47.80
2018-07-25T12:11:55.269Z,46.30
2018-07-25T12:14:23.594Z,45.40
2018-07-25T12:16:52.222Z,45.50
2018-07-25T12:19:20.514Z,44.90
2018-07-25T12:21:48.803Z,45.20
2018-07-25T12:24:17.095Z,45.50
2018-07-25T12:26:45.388Z,45.40
2018-07-25T12:29:13.664Z,45.70
2018-07-25T12:31:41.954Z,45.70
2018-07-25T12:34:10.542Z,46.20
2018-07-25T12:36:38.891Z,45.50
2018-07-25T12:39:08.674Z,44.90
2018-07-25T12:41:37.009Z,44.60
2018-07-25T12:44:05.675Z,44.60
2018-07-25T12:46:33.960Z,44.60
2018-07-25T12:49:02.271Z,45.60
2018-07-25T12:51:30.843Z,45.50
2018-07-25T12:53:59.151Z,46.40
2018-07-25T12:56:27.446Z,46.90
2018-07-25T12:58:55.812Z,46.70
2018-07-25T13:01:24.107Z,46.70
2018-07-25T13:03:52.414Z,47.30
2018-07-25T13:06:20.734Z,46.70
2018-07-25T13:08:49.049Z,46.40
2018-07-25T13:11:17.391Z,46.50
2018-07-25T13:13:45.694Z,46.80
2018-07-25T13:16:14.168Z,47.00
2018-07-25T13:18:42.457Z,46.00
2018-07-25T13:21:10.756Z,47.00
2018-07-25T13:23:39.093Z,46.40
2018-07-25T13:26:07.455Z,46.20
2018-07-25T13:28:35.835Z,45.40
2018-07-25T13:31:04.216Z,45.70
2018-07-25T13:33:32.566Z,45.20
2018-07-25T13:36:00.915Z,45.90
2018-07-25T13:38:29.466Z,45.60
2018-07-25T13:40:57.744Z,45.00
2018-07-25T13:43:26.445Z,44.40
2018-07-25T13:45:54.804Z,45.10
2018-07-25T13:48:23.090Z,45.00
2018-07-25T13:50:51.447Z,44.80
2018-07-25T13:53:19.751Z,44.50
2018-07-25T13:55:48.098Z,44.80
2018-07-25T13:58:16.481Z,44.00
2018-07-25T14:00:51.087Z,44.60
2018-07-25T14:03:19.406Z,43.90
2018-07-25T14:05:47.733Z,43.80
2018-07-25T14:08:16.437Z,43.60
2018-07-25T14:10:44.740Z,43.00
2018-07-25T14:13:13.097Z,43.90
2018-07-25T14:15:41.421Z,43.40
2018-07-25T14:18:09.762Z,43.30
2018-07-25T14:20:37.998Z,42.60
2018-07-25T14:23:06.435Z,41.30
2018-07-25T14:25:34.849Z,41.30
2018-07-25T14:28:03.271Z,40.70
2018-07-25T14:30:31.612Z,41.30
2018-07-25T14:32:59.991Z,40.40
2018-07-25T14:35:28.311Z,40.30
2018-07-25T14:37:56.638Z,40.80
2018-07-25T14:40:25.202Z,39.90
2018-07-25T14:42:53.570Z,39.30
2018-07-25T14:45:21.931Z,39.10
2018-07-25T14:47:50.252Z,39.70
2018-07-25T14:50:18.591Z,39.50
2018-07-25T14:52:46.939Z,39.90
2018-07-25T14:55:15.300Z,39.20
2018-07-25T14:57:43.715Z,39.20
2018-07-25T15:00:12.143Z,39.00
2018-07-25T15:02:40.541Z,40.10
2018-07-25T15:05:08.798Z,40.40
2018-07-25T15:07:37.132Z,40.10
2018-07-25T15:10:06.478Z,39.90
2018-07-25T15:12:41.198Z,40.60
2018-07-25T15:15:10.720Z,40.50
2018-07-25T15:17:39.031Z,41.20
2018-07-25T15:20:08.105Z,41.30
2018-07-25T15:22:36.385Z,41.90
2018-07-25T15:25:04.942Z,41.70
2018-07-25T15:27:33.218Z,42.30
2018-07-25T15:30:01.559Z,42.30
2018-07-25T15:32:29.909Z,42.60
2018-07-25T15:34:58.412Z,42.50
2018-07-25T15:37:26.707Z,42.70
2018-07-25T15:39:55.021Z,42.50
2018-07-25T15:42:23.677Z,42.80
2018-07-25T15:44:52.216Z,42.70
2018-07-25T15:47:20.587Z,42.90
2018-07-25T15:49:48.936Z,43.00
2018-07-25T15:52:17.261Z,42.20
2018-07-25T15:54:45.603Z,43.20
2018-07-25T15:57:13.912Z,43.50
2018-07-25T15:59:42.287Z,43.00
2018-07-25T16:02:10.645Z,43.60
2018-07-25T16:04:39.042Z,44.00
2018-07-25T16:07:07.346Z,44.00
2018-07-25T16:09:35.648Z,44.20
2018-07-25T16:12:03.964Z,43.50
2018-07-25T16:14:32.289Z,44.10
2018-07-25T16:17:00.885Z,44.20
2018-07-25T16:19:29.166Z,43.80
2018-07-25T16:21:57.666Z,44.40
2018-07-25T16:24:25.952Z,43.90
2018-07-25T16:26:54.300Z,43.60
2018-07-25T16:29:22.673Z,44.20
2018-07-25T16:31:51.029Z,44.10
2018-07-25T16:34:19.373Z,43.80
2018-07-25T16:36:47.709Z,43.40
2018-07-25T16:39:17.682Z,43.70
2018-07-25T16:41:46.071Z,43.70
2018-07-25T16:44:14.797Z,43.80
2018-07-25T16:46:43.094Z,44.10
2018-07-25T16:49:11.396Z,44.30
2018-07-25T16:51:39.745Z,43.80
2018-07-25T16:54:08.009Z,44.20
2018-07-25T16:56:36.344Z,44.20
2018-07-25T16:59:04.628Z,44.40
2018-07-25T17:01:32.950Z,44.70
2018-07-25T17:04:01.204Z,44.10
2018-07-25T17:06:29.489Z,44.00
2018-07-25T17:08:57.761Z,44.90
2018-07-25T17:11:26.033Z,44.70
2018-07-25T17:13:54.482Z,45.00
2018-07-25T17:16:22.738Z,45.30
2018-07-25T17:18:51.054Z,44.90
2018-07-25T17:21:19.361Z,45.80
2018-07-25T17:23:47.623Z,45.80
2018-07-25T17:26:15.917Z,46.60
2018-07-25T17:28:44.221Z,46.80
2018-07-25T17:31:12.795Z,47.30
2018-07-25T17:33:41.057Z,47.30
2018-07-25T17:36:09.382Z,48.10
2018-07-25T17:38:37.690Z,47.60
2018-07-25T17:41:06.009Z,47.20
2018-07-25T17:43:34.302Z,47.90
2018-07-25T17:46:02.621Z,48.00
2018-07-25T17:48:31.112Z,48.30
2018-07-25T17:50:59.492Z,48.40
2018-07-25T17:53:27.902Z,48.50
2018-07-25T17:55:56.170Z,48.90
2018-07-25T17:58:24.685Z,49.30
2018-07-25T18:00:52.984Z,49.80
2018-07-25T18:03:21.260Z,50.00
2018-07-25T18:05:49.572Z,50.20
2018-07-25T18:08:17.924Z,50.70
2018-07-25T18:10:46.218Z,51.10
2018-07-25T18:13:19.764Z,51.30
2018-07-25T18:15:48.165Z,52.00
2018-07-25T18:18:16.444Z,52.10
2018-07-25T18:20:44.746Z,52.50
2018-07-25T18:23:13.059Z,52.80
2018-07-25T18:25:41.337Z,53.40
2018-07-25T18:28:09.702Z,53.10
2018-07-25T18:30:37.999Z,53.40
2018-07-25T18:33:06.294Z,53.30
2018-07-25T18:35:34.642Z,53.10
2018-07-25T18:40:31.039Z,53.90
2018-07-25T18:42:59.302Z,53.90
2018-07-25T18:45:27.561Z,54.20
2018-07-25T18:47:55.863Z,54.60
2018-07-25T18:50:24.197Z,54.30
2018-07-25T18:52:52.470Z,54.40
2018-07-25T18:55:20.854Z,54.70
2018-07-25T18:57:49.142Z,55.40
2018-07-25T19:00:17.481Z,55.00
2018-07-25T19:02:45.843Z,54.90
2018-07-25T19:05:14.143Z,55.00
2018-07-25T19:07:42.390Z,55.00
2018-07-25T19:10:10.700Z,54.90
2018-07-25T19:12:38.972Z,55.10
2018-07-25T19:15:12.726Z,55.30
2018-07-25T19:17:40.986Z,55.40
2018-07-25T19:20:09.316Z,55.80
2018-07-25T19:22:37.598Z,56.10
2018-07-25T19:25:05.885Z,56.30
2018-07-25T19:27:34.173Z,56.40
2018-07-25T19:30:02.529Z,56.00
2018-07-25T19:32:30.781Z,56.20
2018-07-25T19:34:59.069Z,56.40
2018-07-25T19:37:27.353Z,56.80
2018-07-25T19:39:55.621Z,57.20
2018-07-25T19:42:24.577Z,57.20
2018-07-25T19:44:52.863Z,57.20
2018-07-25T19:47:21.137Z,57.80
2018-07-25T19:49:49.409Z,57.80
2018-07-25T19:52:17.663Z,58.40
2018-07-25T19:54:45.922Z,58.70
2018-07-25T19:57:14.245Z,58.80
2018-07-25T19:59:42.489Z,59.30
2018-07-25T20:02:11.817Z,59.20
2018-07-25T20:04:40.069Z,59.10
2018-07-25T20:07:08.331Z,59.10
2018-07-25T20:09:36.653Z,59.20
2018-07-25T20:14:38.383Z,59.70
2018-07-25T20:17:06.790Z,60.20
2018-07-25T20:19:35.291Z,60.10
2018-07-25T20:22:03.526Z,60.50
2018-07-25T20:24:31.794Z,60.70
2018-07-25T20:27:00.074Z,60.30
2018-07-25T20:29:28.373Z,60.60
2018-07-25T20:31:56.620Z,61.00
2018-07-25T20:34:24.903Z,61.30
2018-07-25T20:36:53.196Z,61.70
2018-07-25T20:39:21.468Z,62.10
2018-07-25T20:41:49.739Z,62.60
2018-07-25T20:44:18.090Z,62.70
2018-07-25T20:46:46.902Z,63.90
2018-07-25T20:49:15.192Z,63.00
2018-07-25T20:51:43.449Z,62.90
2018-07-25T20:54:11.918Z,62.70
2018-07-25T20:56:40.194Z,62.90
2018-07-25T20:59:08.473Z,62.40
2018-07-25T21:01:36.753Z,62.70
2018-07-25T21:04:05.206Z,62.90
2018-07-25T21:06:33.524Z,63.10
2018-07-25T21:09:01.822Z,63.70
2018-07-25T21:13:58.438Z,64.00
2018-07-25T21:16:26.716Z,64.30
2018-07-25T21:18:54.938Z,63.90
2018-07-25T21:21:23.308Z,64.40
2018-07-25T21:23:51.618Z,65.10
2018-07-25T21:26:19.901Z,64.40
2018-07-25T21:28:48.161Z,64.50
2018-07-25T21:31:16.444Z,64.80
2018-07-25T21:33:44.713Z,65.20
2018-07-25T21:36:13.013Z,65.70
2018-07-25T21:38:41.277Z,66.20
2018-07-25T21:41:09.552Z,65.80
2018-07-25T21:43:37.824Z,66.10
2018-07-25T21:46:06.618Z,65.60
2018-07-25T21:48:34.894Z,65.90
2018-07-25T21:51:03.231Z,66.00
2018-07-25T21:53:31.506Z,66.30
2018-07-25T21:55:59.753Z,65.80
2018-07-25T21:58:28.047Z,66.00
2018-07-25T22:01:00.195Z,66.20
2018-07-25T22:03:28.458Z,66.30
2018-07-25T22:05:56.753Z,66.20
2018-07-25T22:08:25.094Z,66.00
2018-07-25T22:10:53.333Z,67.30
2018-07-25T22:13:21.575Z,67.00
2018-07-25T22:15:49.873Z,67.00
2018-07-25T22:18:18.122Z,67.70
2018-07-25T22:20:46.423Z,68.10
2018-07-25T22:23:14.673Z,68.00
2018-07-25T22:25:42.921Z,68.50
2018-07-25T22:28:11.196Z,68.40
2018-07-25T22:30:39.453Z,69.10
2018-07-25T22:33:07.754Z,68.30
2018-07-25T22:35:36.034Z,68.90
2018-07-25T22:38:04.315Z,68.40
2018-07-25T22:40:32.593Z,69.00
2018-07-25T22:43:00.981Z,69.40
2018-07-25T22:45:29.272Z,69.10
2018-07-25T22:47:57.522Z,69.90
2018-07-25T22:50:25.798Z,69.60
2018-07-25T22:52:54.068Z,70.10
2018-07-25T22:55:22.354Z,70.50
2018-07-25T22:57:50.685Z,71.80
2018-07-25T23:00:18.935Z,70.80
2018-07-25T23:02:47.206Z,70.30
2018-07-25T23:05:15.480Z,71.00
2018-07-25T23:07:43.737Z,71.00
2018-07-25T23:10:12.242Z,71.00
2018-07-25T23:12:40.492Z,70.70
2018-07-25T23:15:08.779Z,71.40
2018-07-25T23:17:37.053Z,70.90
2018-07-25T23:20:05.363Z,71.70
2018-07-25T23:25:07.163Z,71.80
2018-07-25T23:27:35.409Z,72.40
2018-07-25T23:30:03.730Z,72.10
2018-07-25T23:32:32.267Z,71.80
2018-07-25T23:37:34.987Z,72.10
2018-07-25T23:40:04.127Z,71.90
2018-07-25T23:42:32.379Z,71.70
2018-07-25T23:45:00.610Z,72.30
2018-07-25T23:47:29.146Z,71.50
2018-07-25T23:49:57.457Z,70.70
2018-07-25T23:52:25.707Z,70.30
2018-07-25T23:54:54.038Z,70.30
2018-07-25T23:57:22.683Z,69.70
2018-07-25T23:59:50.963Z,69.60
